sensor_id;sensor_type;location;lat;lon;timestamp;P1;P2;P0
65360;PMS5003;51958;55.018;73.536;2023-04-29T00:02:19;41.00;33.00;23.00
65360;PMS5003;51958;55.018;73.536;2023-04-29T00:05:20;40.00;33.00;22.00
65360;PMS5003;51958;55.018;73.536;2023-04-29T00:08:31;42.00;33.00;23.00
65360;PMS5003;51958;55.018;73.536;2023-04-29T00:11:32;43.00;35.00;24.00
65360;PMS5003;51958;55.018;73.536;2023-04-29T00:14:36;42.00;35.00;24.00
65360;PMS5003;51958;55.018;73.536;2023-04-29T00:17:42;41.00;33.00;23.00
65360;PMS5003;51958;55.018;73.536;2023-04-29T00:20:46;40.50;33.00;23.00
65360;PMS5003;51958;55.018;73.536;2023-04-29T00:23:47;40.00;32.00;22.33
65360;PMS5003;51958;55.018;73.536;2023-04-29T00:26:48;41.33;34.00;23.00
65360;PMS5003;51958;55.018;73.536;2023-04-29T00:29:50;41.00;33.33;23.00
65360;PMS5003;51958;55.018;73.536;2023-04-29T00:32:51;40.00;33.33;23.00
65360;PMS5003;51958;55.018;73.536;2023-04-29T00:35:52;39.67;33.67;23.00
65360;PMS5003;51958;55.018;73.536;2023-04-29T00:38:53;39.67;33.00;23.00
65360;PMS5003;51958;55.018;73.536;2023-04-29T00:41:55;40.33;33.00;22.00
65360;PMS5003;51958;55.018;73.536;2023-04-29T00:44:56;38.33;32.00;22.00
65360;PMS5003;51958;55.018;73.536;2023-04-29T00:47:57;39.00;32.00;21.33
65360;PMS5003;51958;55.018;73.536;2023-04-29T00:51:02;37.67;31.00;20.00
65360;PMS5003;51958;55.018;73.536;2023-04-29T00:54:09;32.33;28.00;19.00
65360;PMS5003;51958;55.018;73.536;2023-04-29T00:57:13;32.67;28.00;19.00
65360;PMS5003;51958;55.018;73.536;2023-04-29T01:00:14;34.00;29.33;20.00
65360;PMS5003;51958;55.018;73.536;2023-04-29T01:03:16;33.67;30.00;20.67
65360;PMS5003;51958;55.018;73.536;2023-04-29T01:09:57;31.33;28.00;19.00
65360;PMS5003;51958;55.018;73.536;2023-04-29T01:16:03;32.00;28.33;20.00
65360;PMS5003;51958;55.018;73.536;2023-04-29T01:22:24;33.00;29.00;20.00
65360;PMS5003;51958;55.018;73.536;2023-04-29T01:25:25;32.00;28.00;20.00
65360;PMS5003;51958;55.018;73.536;2023-04-29T01:32:04;31.33;28.00;19.00
65360;PMS5003;51958;55.018;73.536;2023-04-29T01:35:23;30.00;27.00;19.00
65360;PMS5003;51958;55.018;73.536;2023-04-29T01:38:38;33.00;28.00;20.00
65360;PMS5003;51958;55.018;73.536;2023-04-29T01:41:44;31.67;28.00;19.00
65360;PMS5003;51958;55.018;73.536;2023-04-29T01:44:56;29.00;27.00;18.33
65360;PMS5003;51958;55.018;73.536;2023-04-29T01:48:00;30.00;27.33;18.33
65360;PMS5003;51958;55.018;73.536;2023-04-29T01:51:04;31.33;28.33;18.00
65360;PMS5003;51958;55.018;73.536;2023-04-29T01:54:13;29.67;28.33;19.33
65360;PMS5003;51958;55.018;73.536;2023-04-29T01:57:15;32.00;28.00;19.33
65360;PMS5003;51958;55.018;73.536;2023-04-29T02:00:36;33.00;27.00;20.00
65360;PMS5003;51958;55.018;73.536;2023-04-29T02:03:38;32.33;27.00;20.00
65360;PMS5003;51958;55.018;73.536;2023-04-29T02:06:53;29.33;27.00;19.33
65360;PMS5003;51958;55.018;73.536;2023-04-29T02:10:05;29.33;26.00;18.00
65360;PMS5003;51958;55.018;73.536;2023-04-29T02:13:12;27.00;23.00;17.50
65360;PMS5003;51958;55.018;73.536;2023-04-29T02:16:16;27.67;23.67;18.00
65360;PMS5003;51958;55.018;73.536;2023-04-29T02:19:30;27.33;25.00;17.33
65360;PMS5003;51958;55.018;73.536;2023-04-29T02:22:31;24.67;24.00;16.00
65360;PMS5003;51958;55.018;73.536;2023-04-29T02:25:33;22.00;22.00;16.00
65360;PMS5003;51958;55.018;73.536;2023-04-29T02:28:34;23.00;21.67;16.00
65360;PMS5003;51958;55.018;73.536;2023-04-29T02:31:40;26.00;23.00;16.33
65360;PMS5003;51958;55.018;73.536;2023-04-29T02:34:41;22.67;20.00;16.00
65360;PMS5003;51958;55.018;73.536;2023-04-29T02:37:42;22.00;20.00;15.00
65360;PMS5003;51958;55.018;73.536;2023-04-29T02:40:43;22.00;20.00;16.00
65360;PMS5003;51958;55.018;73.536;2023-04-29T02:43:45;25.00;21.33;16.00
65360;PMS5003;51958;55.018;73.536;2023-04-29T02:46:46;22.67;20.00;14.00
65360;PMS5003;51958;55.018;73.536;2023-04-29T02:49:47;18.00;17.33;10.00
65360;PMS5003;51958;55.018;73.536;2023-04-29T02:52:48;20.00;18.33;10.00
65360;PMS5003;51958;55.018;73.536;2023-04-29T02:55:50;20.67;18.00;8.33
65360;PMS5003;51958;55.018;73.536;2023-04-29T02:58:51;20.33;18.00;10.00
65360;PMS5003;51958;55.018;73.536;2023-04-29T03:01:52;18.33;17.33;9.67
65360;PMS5003;51958;55.018;73.536;2023-04-29T03:04:54;19.33;18.00;11.33
65360;PMS5003;51958;55.018;73.536;2023-04-29T03:07:55;19.00;17.00;10.00
65360;PMS5003;51958;55.018;73.536;2023-04-29T03:10:56;19.67;18.00;12.00
65360;PMS5003;51958;55.018;73.536;2023-04-29T03:14:07;19.00;18.25;12.00
65360;PMS5003;51958;55.018;73.536;2023-04-29T03:17:10;14.33;13.33;8.00
65360;PMS5003;51958;55.018;73.536;2023-04-29T03:20:11;14.00;14.00;7.00
65360;PMS5003;51958;55.018;73.536;2023-04-29T03:23:13;16.00;15.00;9.00
65360;PMS5003;51958;55.018;73.536;2023-04-29T03:26:14;16.00;15.00;8.00
65360;PMS5003;51958;55.018;73.536;2023-04-29T03:29:15;14.33;12.33;6.00
65360;PMS5003;51958;55.018;73.536;2023-04-29T03:32:16;9.33;9.00;4.33
65360;PMS5003;51958;55.018;73.536;2023-04-29T03:35:19;13.00;11.00;7.00
65360;PMS5003;51958;55.018;73.536;2023-04-29T03:38:38;14.00;13.00;8.00
65360;PMS5003;51958;55.018;73.536;2023-04-29T03:41:39;13.67;12.00;7.00
65360;PMS5003;51958;55.018;73.536;2023-04-29T03:44:43;15.00;14.00;7.00
65360;PMS5003;51958;55.018;73.536;2023-04-29T03:47:44;13.00;13.00;6.33
65360;PMS5003;51958;55.018;73.536;2023-04-29T03:50:55;13.67;13.67;8.00
65360;PMS5003;51958;55.018;73.536;2023-04-29T03:53:57;14.00;13.00;7.00
65360;PMS5003;51958;55.018;73.536;2023-04-29T03:56:59;9.67;9.00;4.00
65360;PMS5003;51958;55.018;73.536;2023-04-29T04:00:02;8.00;7.00;3.33
65360;PMS5003;51958;55.018;73.536;2023-04-29T04:03:14;7.00;7.00;3.67
65360;PMS5003;51958;55.018;73.536;2023-04-29T04:06:15;6.67;6.00;3.00
65360;PMS5003;51958;55.018;73.536;2023-04-29T04:09:17;7.00;6.00;3.00
65360;PMS5003;51958;55.018;73.536;2023-04-29T04:12:19;5.00;5.00;2.33
65360;PMS5003;51958;55.018;73.536;2023-04-29T04:15:30;4.00;4.00;2.00
65360;PMS5003;51958;55.018;73.536;2023-04-29T04:18:32;6.00;6.00;2.00
65360;PMS5003;51958;55.018;73.536;2023-04-29T04:21:33;6.00;6.00;2.00
65360;PMS5003;51958;55.018;73.536;2023-04-29T04:24:39;5.00;5.00;2.00
65360;PMS5003;51958;55.018;73.536;2023-04-29T04:27:40;6.00;5.67;3.00
65360;PMS5003;51958;55.018;73.536;2023-04-29T04:30:45;5.00;5.00;3.00
65360;PMS5003;51958;55.018;73.536;2023-04-29T04:33:52;6.00;5.00;3.00
65360;PMS5003;51958;55.018;73.536;2023-04-29T04:36:53;6.00;5.00;2.00
65360;PMS5003;51958;55.018;73.536;2023-04-29T04:39:56;4.00;4.00;2.00
65360;PMS5003;51958;55.018;73.536;2023-04-29T04:43:01;4.00;3.00;1.00
65360;PMS5003;51958;55.018;73.536;2023-04-29T04:46:13;15.00;12.33;7.33
65360;PMS5003;51958;55.018;73.536;2023-04-29T04:49:29;8.67;6.00;2.00
65360;PMS5003;51958;55.018;73.536;2023-04-29T04:52:31;6.00;6.00;2.00
65360;PMS5003;51958;55.018;73.536;2023-04-29T04:55:54;3.00;3.00;0.00
65360;PMS5003;51958;55.018;73.536;2023-04-29T04:58:54;6.00;5.00;2.00
65360;PMS5003;51958;55.018;73.536;2023-04-29T05:01:55;5.00;4.00;2.00
65360;PMS5003;51958;55.018;73.536;2023-04-29T05:04:57;7.00;5.00;2.00
65360;PMS5003;51958;55.018;73.536;2023-04-29T05:08:00;3.67;3.67;2.00
65360;PMS5003;51958;55.018;73.536;2023-04-29T05:11:14;4.33;4.33;1.00
65360;PMS5003;51958;55.018;73.536;2023-04-29T05:14:20;4.67;3.00;3.00
65360;PMS5003;51958;55.018;73.536;2023-04-29T05:17:21;7.00;6.00;4.00
65360;PMS5003;51958;55.018;73.536;2023-04-29T05:20:32;7.00;6.00;4.00
65360;PMS5003;51958;55.018;73.536;2023-04-29T05:23:35;5.00;3.00;2.00
65360;PMS5003;51958;55.018;73.536;2023-04-29T05:26:41;9.00;7.33;4.00
65360;PMS5003;51958;55.018;73.536;2023-04-29T05:29:53;6.00;6.00;4.00
65360;PMS5003;51958;55.018;73.536;2023-04-29T05:33:06;6.00;5.67;3.00
65360;PMS5003;51958;55.018;73.536;2023-04-29T05:36:07;7.00;6.00;3.00
65360;PMS5003;51958;55.018;73.536;2023-04-29T05:39:18;7.00;7.00;2.67
65360;PMS5003;51958;55.018;73.536;2023-04-29T05:42:34;4.00;4.00;2.33
65360;PMS5003;51958;55.018;73.536;2023-04-29T05:45:35;6.33;6.00;4.00
65360;PMS5003;51958;55.018;73.536;2023-04-29T05:48:37;7.33;6.67;4.00
65360;PMS5003;51958;55.018;73.536;2023-04-29T05:51:48;5.33;5.00;2.00
65360;PMS5003;51958;55.018;73.536;2023-04-29T05:54:49;5.00;5.00;2.00
65360;PMS5003;51958;55.018;73.536;2023-04-29T05:57:50;5.00;4.00;2.00
65360;PMS5003;51958;55.018;73.536;2023-04-29T06:00:56;6.00;4.67;2.00
65360;PMS5003;51958;55.018;73.536;2023-04-29T06:03:59;3.00;3.00;1.00
65360;PMS5003;51958;55.018;73.536;2023-04-29T06:07:13;5.00;3.00;2.00
65360;PMS5003;51958;55.018;73.536;2023-04-29T06:10:52;5.00;5.00;2.00
65360;PMS5003;51958;55.018;73.536;2023-04-29T06:13:54;2.33;2.33;1.00
65360;PMS5003;51958;55.018;73.536;2023-04-29T06:16:55;5.00;4.00;2.00
65360;PMS5003;51958;55.018;73.536;2023-04-29T06:19:57;8.00;8.00;3.00
65360;PMS5003;51958;55.018;73.536;2023-04-29T06:22:58;8.00;8.00;3.67
65360;PMS5003;51958;55.018;73.536;2023-04-29T06:26:04;9.33;9.33;5.00
65360;PMS5003;51958;55.018;73.536;2023-04-29T06:29:05;11.00;10.00;6.00
65360;PMS5003;51958;55.018;73.536;2023-04-29T06:32:11;19.33;17.00;10.00
65360;PMS5003;51958;55.018;73.536;2023-04-29T06:35:19;19.33;18.00;10.00
65360;PMS5003;51958;55.018;73.536;2023-04-29T06:38:36;26.33;24.67;15.67
65360;PMS5003;51958;55.018;73.536;2023-04-29T06:41:53;27.00;25.00;17.00
65360;PMS5003;51958;55.018;73.536;2023-04-29T06:45:27;38.75;32.25;21.50
65360;PMS5003;51958;55.018;73.536;2023-04-29T06:48:42;39.33;32.00;22.00
65360;PMS5003;51958;55.018;73.536;2023-04-29T06:51:44;37.00;32.00;21.00
65360;PMS5003;51958;55.018;73.536;2023-04-29T06:54:54;38.00;32.00;22.00
65360;PMS5003;51958;55.018;73.536;2023-04-29T06:57:55;40.00;33.33;22.00
65360;PMS5003;51958;55.018;73.536;2023-04-29T07:00:57;38.67;33.00;21.00
65360;PMS5003;51958;55.018;73.536;2023-04-29T07:04:03;38.00;33.00;22.33
65360;PMS5003;51958;55.018;73.536;2023-04-29T07:07:04;37.00;31.00;24.00
65360;PMS5003;51958;55.018;73.536;2023-04-29T07:10:08;39.67;32.00;23.00
65360;PMS5003;51958;55.018;73.536;2023-04-29T07:13:14;36.00;32.00;23.00
65360;PMS5003;51958;55.018;73.536;2023-04-29T07:16:16;34.33;31.00;22.00
65360;PMS5003;51958;55.018;73.536;2023-04-29T07:19:21;34.00;30.00;21.00
65360;PMS5003;51958;55.018;73.536;2023-04-29T07:22:22;34.00;29.00;22.00
65360;PMS5003;51958;55.018;73.536;2023-04-29T07:25:25;36.00;31.00;21.00
65360;PMS5003;51958;55.018;73.536;2023-04-29T07:28:26;36.33;31.00;21.00
65360;PMS5003;51958;55.018;73.536;2023-04-29T07:31:27;39.00;31.00;22.00
65360;PMS5003;51958;55.018;73.536;2023-04-29T07:34:29;39.00;31.00;23.00
65360;PMS5003;51958;55.018;73.536;2023-04-29T07:37:30;37.33;31.67;23.00
65360;PMS5003;51958;55.018;73.536;2023-04-29T07:40:32;36.33;31.00;21.00
65360;PMS5003;51958;55.018;73.536;2023-04-29T07:43:33;37.00;30.00;20.00
65360;PMS5003;51958;55.018;73.536;2023-04-29T07:46:34;34.00;29.33;20.00
65360;PMS5003;51958;55.018;73.536;2023-04-29T07:49:35;32.67;29.00;20.33
65360;PMS5003;51958;55.018;73.536;2023-04-29T07:52:47;30.33;28.33;19.33
65360;PMS5003;51958;55.018;73.536;2023-04-29T07:55:50;30.33;29.00;19.33
65360;PMS5003;51958;55.018;73.536;2023-04-29T07:58:58;30.33;29.00;19.33
65360;PMS5003;51958;55.018;73.536;2023-04-29T08:01:59;26.00;25.00;18.00
65360;PMS5003;51958;55.018;73.536;2023-04-29T08:05:05;25.50;24.00;17.75
65360;PMS5003;51958;55.018;73.536;2023-04-29T08:08:06;27.00;24.00;18.00
65360;PMS5003;51958;55.018;73.536;2023-04-29T08:11:07;26.00;24.00;18.00
65360;PMS5003;51958;55.018;73.536;2023-04-29T08:14:11;26.00;24.33;18.00
65360;PMS5003;51958;55.018;73.536;2023-04-29T08:17:12;23.00;23.00;16.00
65360;PMS5003;51958;55.018;73.536;2023-04-29T08:20:13;21.00;20.00;13.00
65360;PMS5003;51958;55.018;73.536;2023-04-29T08:23:15;22.00;21.00;13.00
65360;PMS5003;51958;55.018;73.536;2023-04-29T08:26:25;23.00;21.00;15.00
65360;PMS5003;51958;55.018;73.536;2023-04-29T08:29:27;23.00;20.67;14.67
65360;PMS5003;51958;55.018;73.536;2023-04-29T08:32:32;21.00;19.33;14.67
65360;PMS5003;51958;55.018;73.536;2023-04-29T08:35:34;19.00;18.67;13.00
65360;PMS5003;51958;55.018;73.536;2023-04-29T08:38:37;20.33;19.00;12.00
65360;PMS5003;51958;55.018;73.536;2023-04-29T08:41:38;21.00;19.00;11.00
65360;PMS5003;51958;55.018;73.536;2023-04-29T08:44:39;19.67;17.67;10.00
65360;PMS5003;51958;55.018;73.536;2023-04-29T08:47:41;19.33;19.00;11.00
65360;PMS5003;51958;55.018;73.536;2023-04-29T08:50:53;21.00;19.33;12.67
65360;PMS5003;51958;55.018;73.536;2023-04-29T08:53:54;21.00;18.67;13.00
65360;PMS5003;51958;55.018;73.536;2023-04-29T08:56:56;20.33;19.33;13.00
65360;PMS5003;51958;55.018;73.536;2023-04-29T08:59:58;22.00;22.00;14.00
65360;PMS5003;51958;55.018;73.536;2023-04-29T09:03:11;22.00;21.00;14.00
65360;PMS5003;51958;55.018;73.536;2023-04-29T09:06:14;25.00;24.00;15.00
65360;PMS5003;51958;55.018;73.536;2023-04-29T09:09:15;28.00;26.00;17.00
65360;PMS5003;51958;55.018;73.536;2023-04-29T09:12:17;30.33;27.00;19.33
65360;PMS5003;51958;55.018;73.536;2023-04-29T09:15:18;31.67;28.33;19.33
65360;PMS5003;51958;55.018;73.536;2023-04-29T09:21:38;35.00;29.67;21.00
65360;PMS5003;51958;55.018;73.536;2023-04-29T09:24:39;40.33;32.33;23.00
65360;PMS5003;51958;55.018;73.536;2023-04-29T09:27:40;40.33;34.00;24.00
65360;PMS5003;51958;55.018;73.536;2023-04-29T09:30:45;42.33;35.33;24.00
65360;PMS5003;51958;55.018;73.536;2023-04-29T09:36:51;42.33;35.00;24.33
65360;PMS5003;51958;55.018;73.536;2023-04-29T09:39:56;47.00;38.00;26.67
65360;PMS5003;51958;55.018;73.536;2023-04-29T09:42:57;49.33;41.33;28.00
65360;PMS5003;51958;55.018;73.536;2023-04-29T09:45:58;49.00;40.00;28.00
65360;PMS5003;51958;55.018;73.536;2023-04-29T09:49:00;52.33;41.33;29.00
65360;PMS5003;51958;55.018;73.536;2023-04-29T09:52:02;50.00;41.00;28.00
65360;PMS5003;51958;55.018;73.536;2023-04-29T09:55:04;48.00;38.00;26.00
65360;PMS5003;51958;55.018;73.536;2023-04-29T09:58:05;45.33;36.00;25.00
65360;PMS5003;51958;55.018;73.536;2023-04-29T10:01:06;38.67;33.00;23.67
65360;PMS5003;51958;55.018;73.536;2023-04-29T10:04:11;35.33;30.00;21.33
65360;PMS5003;51958;55.018;73.536;2023-04-29T10:07:18;33.00;29.33;20.67
65360;PMS5003;51958;55.018;73.536;2023-04-29T10:10:19;30.00;27.67;19.33
65360;PMS5003;51958;55.018;73.536;2023-04-29T10:13:21;28.67;27.00;19.00
65360;PMS5003;51958;55.018;73.536;2023-04-29T10:16:27;29.33;27.00;18.00
65360;PMS5003;51958;55.018;73.536;2023-04-29T10:19:45;26.67;24.67;18.00
65360;PMS5003;51958;55.018;73.536;2023-04-29T10:22:48;19.00;19.00;15.00
65360;PMS5003;51958;55.018;73.536;2023-04-29T10:25:50;19.33;17.00;12.33
65360;PMS5003;51958;55.018;73.536;2023-04-29T10:28:53;19.33;18.00;10.00
65360;PMS5003;51958;55.018;73.536;2023-04-29T10:31:55;19.00;19.00;11.00
65360;PMS5003;51958;55.018;73.536;2023-04-29T10:35:01;20.00;18.00;9.67
65360;PMS5003;51958;55.018;73.536;2023-04-29T10:38:07;18.33;18.00;8.00
65360;PMS5003;51958;55.018;73.536;2023-04-29T10:41:16;16.67;15.67;8.67
65360;PMS5003;51958;55.018;73.536;2023-04-29T10:44:29;18.33;17.67;9.33
65360;PMS5003;51958;55.018;73.536;2023-04-29T10:47:35;20.00;18.00;10.00
65360;PMS5003;51958;55.018;73.536;2023-04-29T10:57:06;29.67;27.33;19.00
65360;PMS5003;51958;55.018;73.536;2023-04-29T11:00:20;33.00;28.67;20.00
65360;PMS5003;51958;55.018;73.536;2023-04-29T11:06:44;34.50;29.50;20.00
65360;PMS5003;51958;55.018;73.536;2023-04-29T11:09:45;38.00;31.00;21.00
65360;PMS5003;51958;55.018;73.536;2023-04-29T11:13:19;40.33;34.00;22.67
65360;PMS5003;51958;55.018;73.536;2023-04-29T11:16:11;40.67;34.00;23.00
65360;PMS5003;51958;55.018;73.536;2023-04-29T11:19:13;39.33;34.00;23.00
65360;PMS5003;51958;55.018;73.536;2023-04-29T11:25:18;44.00;35.00;25.00
65360;PMS5003;51958;55.018;73.536;2023-04-29T11:28:30;43.00;36.00;26.00
65360;PMS5003;51958;55.018;73.536;2023-04-29T11:31:32;48.00;38.33;27.00
65360;PMS5003;51958;55.018;73.536;2023-04-29T11:34:42;47.00;38.33;26.00
65360;PMS5003;51958;55.018;73.536;2023-04-29T11:37:43;50.00;39.33;28.00
65360;PMS5003;51958;55.018;73.536;2023-04-29T11:40:51;49.00;40.00;28.33
65360;PMS5003;51958;55.018;73.536;2023-04-29T11:43:55;53.00;42.33;29.67
65360;PMS5003;51958;55.018;73.536;2023-04-29T11:47:01;57.00;45.00;31.00
65360;PMS5003;51958;55.018;73.536;2023-04-29T11:50:05;56.33;46.00;30.00
65360;PMS5003;51958;55.018;73.536;2023-04-29T11:53:13;54.33;43.00;30.00
65360;PMS5003;51958;55.018;73.536;2023-04-29T11:56:14;51.33;41.33;29.00
65360;PMS5003;51958;55.018;73.536;2023-04-29T11:59:15;51.33;42.00;29.00
65360;PMS5003;51958;55.018;73.536;2023-04-29T12:02:16;52.67;42.33;29.67
65360;PMS5003;51958;55.018;73.536;2023-04-29T12:05:17;53.00;43.33;30.00
65360;PMS5003;51958;55.018;73.536;2023-04-29T12:08:24;54.67;44.00;31.00
65360;PMS5003;51958;55.018;73.536;2023-04-29T12:11:25;58.00;48.00;33.33
65360;PMS5003;51958;55.018;73.536;2023-04-29T12:14:26;57.33;47.67;33.33
65360;PMS5003;51958;55.018;73.536;2023-04-29T12:17:27;58.33;47.00;33.67
65360;PMS5003;51958;55.018;73.536;2023-04-29T12:20:28;59.67;49.00;35.67
65360;PMS5003;51958;55.018;73.536;2023-04-29T12:23:34;62.67;53.67;38.67
65360;PMS5003;51958;55.018;73.536;2023-04-29T12:26:35;67.00;60.00;45.00
65360;PMS5003;51958;55.018;73.536;2023-04-29T12:29:40;68.67;62.67;47.67
65360;PMS5003;51958;55.018;73.536;2023-04-29T12:32:51;72.67;67.67;49.67
65360;PMS5003;51958;55.018;73.536;2023-04-29T12:35:54;74.33;69.67;53.00
65360;PMS5003;51958;55.018;73.536;2023-04-29T12:38:56;75.00;71.67;52.33
65360;PMS5003;51958;55.018;73.536;2023-04-29T12:41:58;74.00;69.00;51.00
65360;PMS5003;51958;55.018;73.536;2023-04-29T12:45:00;70.00;66.00;49.00
65360;PMS5003;51958;55.018;73.536;2023-04-29T12:48:00;69.00;64.00;48.00
65360;PMS5003;51958;55.018;73.536;2023-04-29T12:51:02;68.00;60.00;43.00
65360;PMS5003;51958;55.018;73.536;2023-04-29T12:54:03;66.00;59.00;41.33
65360;PMS5003;51958;55.018;73.536;2023-04-29T12:57:06;66.00;60.00;44.00
65360;PMS5003;51958;55.018;73.536;2023-04-29T13:00:07;61.33;53.00;39.33
65360;PMS5003;51958;55.018;73.536;2023-04-29T13:03:09;61.33;51.00;37.00
65360;PMS5003;51958;55.018;73.536;2023-04-29T13:06:10;63.33;54.00;38.33
65360;PMS5003;51958;55.018;73.536;2023-04-29T13:09:11;63.33;54.33;38.33
65360;PMS5003;51958;55.018;73.536;2023-04-29T13:12:18;63.00;54.33;39.33
65360;PMS5003;51958;55.018;73.536;2023-04-29T13:15:24;63.00;55.00;40.00
65360;PMS5003;51958;55.018;73.536;2023-04-29T13:18:25;58.33;49.00;36.00
65360;PMS5003;51958;55.018;73.536;2023-04-29T13:21:37;59.00;47.33;34.67
65360;PMS5003;51958;55.018;73.536;2023-04-29T13:24:38;59.33;49.33;35.00
65360;PMS5003;51958;55.018;73.536;2023-04-29T13:27:51;58.00;45.00;33.00
65360;PMS5003;51958;55.018;73.536;2023-04-29T13:30:52;58.00;44.33;30.33
65360;PMS5003;51958;55.018;73.536;2023-04-29T13:33:54;58.00;46.00;33.00
65360;PMS5003;51958;55.018;73.536;2023-04-29T13:36:57;57.67;45.67;32.33
65360;PMS5003;51958;55.018;73.536;2023-04-29T13:39:58;58.00;45.67;33.00
65360;PMS5003;51958;55.018;73.536;2023-04-29T13:43:09;55.33;44.00;31.67
65360;PMS5003;51958;55.018;73.536;2023-04-29T13:46:10;60.67;49.67;34.67
65360;PMS5003;51958;55.018;73.536;2023-04-29T13:49:11;62.00;51.00;36.33
65360;PMS5003;51958;55.018;73.536;2023-04-29T13:52:12;61.33;50.00;36.33
65360;PMS5003;51958;55.018;73.536;2023-04-29T13:55:18;58.00;46.67;33.00
65360;PMS5003;51958;55.018;73.536;2023-04-29T13:58:30;58.00;46.33;33.00
65360;PMS5003;51958;55.018;73.536;2023-04-29T14:01:41;57.00;45.00;32.00
65360;PMS5003;51958;55.018;73.536;2023-04-29T14:04:42;57.00;45.00;31.00
65360;PMS5003;51958;55.018;73.536;2023-04-29T14:07:53;56.00;45.33;33.33
65360;PMS5003;51958;55.018;73.536;2023-04-29T14:10:54;56.00;45.00;32.33
65360;PMS5003;51958;55.018;73.536;2023-04-29T14:13:56;56.00;44.33;31.67
65360;PMS5003;51958;55.018;73.536;2023-04-29T14:16:57;55.33;44.00;31.67
65360;PMS5003;51958;55.018;73.536;2023-04-29T14:20:03;54.00;43.33;30.33
65360;PMS5003;51958;55.018;73.536;2023-04-29T14:23:05;53.67;43.00;29.33
65360;PMS5003;51958;55.018;73.536;2023-04-29T14:26:06;54.00;43.33;30.33
65360;PMS5003;51958;55.018;73.536;2023-04-29T14:29:07;54.67;43.33;31.00
65360;PMS5003;51958;55.018;73.536;2023-04-29T14:32:08;58.00;46.33;33.00
65360;PMS5003;51958;55.018;73.536;2023-04-29T14:35:12;59.33;48.33;34.67
65360;PMS5003;51958;55.018;73.536;2023-04-29T14:38:13;59.33;48.33;35.33
65360;PMS5003;51958;55.018;73.536;2023-04-29T14:41:14;58.00;47.00;35.00
65360;PMS5003;51958;55.018;73.536;2023-04-29T14:44:15;59.00;45.33;33.33
65360;PMS5003;51958;55.018;73.536;2023-04-29T14:47:18;59.33;45.33;33.33
65360;PMS5003;51958;55.018;73.536;2023-04-29T14:50:24;58.00;44.33;32.00
65360;PMS5003;51958;55.018;73.536;2023-04-29T14:53:26;57.33;45.00;33.33
65360;PMS5003;51958;55.018;73.536;2023-04-29T14:56:27;58.00;47.00;34.00
65360;PMS5003;51958;55.018;73.536;2023-04-29T14:59:28;58.00;48.00;35.00
65360;PMS5003;51958;55.018;73.536;2023-04-29T15:02:30;59.67;52.00;36.33
65360;PMS5003;51958;55.018;73.536;2023-04-29T15:05:31;63.67;56.00;40.33
65360;PMS5003;51958;55.018;73.536;2023-04-29T15:08:32;64.67;58.33;42.33
65360;PMS5003;51958;55.018;73.536;2023-04-29T15:11:33;64.00;58.00;41.33
65360;PMS5003;51958;55.018;73.536;2023-04-29T15:14:34;65.33;60.00;43.67
65360;PMS5003;51958;55.018;73.536;2023-04-29T15:17:35;66.00;61.33;43.33
65360;PMS5003;51958;55.018;73.536;2023-04-29T15:20:36;66.00;61.33;44.33
65360;PMS5003;51958;55.018;73.536;2023-04-29T15:23:37;66.00;61.00;43.00
65360;PMS5003;51958;55.018;73.536;2023-04-29T15:26:39;65.33;60.67;42.00
65360;PMS5003;51958;55.018;73.536;2023-04-29T15:29:40;65.33;62.33;43.67
65360;PMS5003;51958;55.018;73.536;2023-04-29T15:32:48;65.00;60.00;44.00
65360;PMS5003;51958;55.018;73.536;2023-04-29T15:35:49;65.33;62.00;44.00
65360;PMS5003;51958;55.018;73.536;2023-04-29T15:38:51;65.00;61.00;43.00
65360;PMS5003;51958;55.018;73.536;2023-04-29T15:41:51;65.00;61.00;43.00
65360;PMS5003;51958;55.018;73.536;2023-04-29T15:44:53;65.00;59.00;43.33
65360;PMS5003;51958;55.018;73.536;2023-04-29T15:47:54;66.33;62.33;43.67
65360;PMS5003;51958;55.018;73.536;2023-04-29T15:50:55;67.33;66.00;46.00
65360;PMS5003;51958;55.018;73.536;2023-04-29T15:53:56;71.00;64.33;46.00
65360;PMS5003;51958;55.018;73.536;2023-04-29T15:56:57;68.67;62.00;44.33
65360;PMS5003;51958;55.018;73.536;2023-04-29T15:59:58;64.00;57.33;42.33
65360;PMS5003;51958;55.018;73.536;2023-04-29T16:02:59;62.00;56.33;41.00
65360;PMS5003;51958;55.018;73.536;2023-04-29T16:06:00;62.00;55.33;40.00
65360;PMS5003;51958;55.018;73.536;2023-04-29T16:09:02;62.33;56.00;39.00
65360;PMS5003;51958;55.018;73.536;2023-04-29T16:12:04;61.33;55.00;39.00
65360;PMS5003;51958;55.018;73.536;2023-04-29T16:15:06;63.33;54.67;39.00
65360;PMS5003;51958;55.018;73.536;2023-04-29T16:18:08;63.33;55.67;39.00
65360;PMS5003;51958;55.018;73.536;2023-04-29T16:21:09;64.00;58.00;40.33
65360;PMS5003;51958;55.018;73.536;2023-04-29T16:24:11;65.33;60.00;43.00
65360;PMS5003;51958;55.018;73.536;2023-04-29T16:27:12;67.33;62.00;44.00
65360;PMS5003;51958;55.018;73.536;2023-04-29T16:30:13;64.00;61.67;44.00
65360;PMS5003;51958;55.018;73.536;2023-04-29T16:33:14;64.33;61.33;43.00
65360;PMS5003;51958;55.018;73.536;2023-04-29T16:36:18;66.67;61.00;42.00
65360;PMS5003;51958;55.018;73.536;2023-04-29T16:39:19;64.33;59.33;41.33
65360;PMS5003;51958;55.018;73.536;2023-04-29T16:42:20;65.33;61.00;41.67
65360;PMS5003;51958;55.018;73.536;2023-04-29T16:45:22;69.00;63.67;43.00
65360;PMS5003;51958;55.018;73.536;2023-04-29T16:48:23;71.00;64.33;43.00
65360;PMS5003;51958;55.018;73.536;2023-04-29T16:51:24;67.33;62.00;42.33
65360;PMS5003;51958;55.018;73.536;2023-04-29T16:54:25;65.33;60.00;41.33
65360;PMS5003;51958;55.018;73.536;2023-04-29T16:57:27;65.33;60.33;41.33
65360;PMS5003;51958;55.018;73.536;2023-04-29T17:00:28;67.00;59.33;42.00
65360;PMS5003;51958;55.018;73.536;2023-04-29T17:03:29;68.33;61.67;42.67
65360;PMS5003;51958;55.018;73.536;2023-04-29T17:06:40;68.67;64.00;43.00
65360;PMS5003;51958;55.018;73.536;2023-04-29T17:09:41;66.33;60.00;42.33
65360;PMS5003;51958;55.018;73.536;2023-04-29T17:12:50;65.00;58.33;41.00
65360;PMS5003;51958;55.018;73.536;2023-04-29T17:16:01;62.33;57.00;41.00
65360;PMS5003;51958;55.018;73.536;2023-04-29T17:19:02;63.00;57.00;41.00
65360;PMS5003;51958;55.018;73.536;2023-04-29T17:22:03;61.33;55.00;39.00
65360;PMS5003;51958;55.018;73.536;2023-04-29T17:25:05;60.00;55.00;38.50
65360;PMS5003;51958;55.018;73.536;2023-04-29T17:28:08;60.33;53.00;37.33
65360;PMS5003;51958;55.018;73.536;2023-04-29T17:31:10;60.33;54.00;37.00
65360;PMS5003;51958;55.018;73.536;2023-04-29T17:34:12;59.67;53.00;36.33
65360;PMS5003;51958;55.018;73.536;2023-04-29T17:37:27;59.00;52.50;36.00